Time;durP1;ratioP1;P1;durP2;ratioP2;P2;SDS_P1;SDS_P2;PMS_P1;PMS_P2;Temp;Humidity;BMP_temperature;BMP_pressure;BME280_temperature;BME280_humidity;BME280_pressure;Samples;Min_cycle;Max_cycle;Signal;HPM_P1;HPM_P2
2021/12/11 00:02:32;;;;;;;19.12;10.02;;;7.20;84.50;;;;;;10823948;33;20054;-71
2021/12/11 00:08:34;;;;;;;13.00;8.52;;;7.20;84.40;;;;;;10827988;33;20012;-71
2021/12/11 00:14:40;;;;;;;11.32;7.82;;;7.20;84.20;;;;;;10825192;32;20388;-71
2021/12/11 00:20:51;;;;;;;11.25;7.30;;;7.20;84.20;;;;;;10827515;32;20055;-71
2021/12/11 00:27:03;;;;;;;8.70;5.62;;;7.10;84.00;;;;;;10823496;33;20324;-71
2021/12/11 00:33:11;;;;;;;8.55;5.70;;;7.10;83.90;;;;;;10813994;33;20396;-71
2021/12/11 00:39:15;;;;;;;8.53;6.47;;;7.10;83.80;;;;;;10822866;33;20058;-71
2021/12/11 00:45:20;;;;;;;10.77;6.15;;;7.00;83.60;;;;;;10826678;33;20012;-71
2021/12/11 00:51:23;;;;;;;9.05;5.68;;;7.00;83.60;;;;;;10826765;33;20050;-71
2021/12/11 00:57:25;;;;;;;8.57;5.37;;;7.00;83.50;;;;;;10826442;32;20306;-71
2021/12/11 01:03:40;;;;;;;9.05;6.30;;;6.90;83.40;;;;;;10826298;33;20016;-71
2021/12/11 01:09:50;;;;;;;8.27;4.90;;;6.80;83.60;;;;;;10826103;32;20028;-71
2021/12/11 01:16:00;;;;;;;8.23;5.90;;;6.80;83.60;;;;;;10812716;33;20059;-71
2021/12/11 01:22:11;;;;;;;8.65;4.70;;;6.80;83.70;;;;;;10825828;33;20020;-71
2021/12/11 01:28:14;;;;;;;8.02;4.68;;;6.70;83.70;;;;;;10810752;32;20051;-71
2021/12/11 01:34:18;;;;;;;9.02;5.47;;;6.80;83.70;;;;;;10825579;33;20396;-71
2021/12/11 01:40:21;;;;;;;14.60;5.65;;;6.80;83.60;;;;;;10825110;33;20070;-71
2021/12/11 01:46:26;;;;;;;8.15;4.97;;;6.70;83.60;;;;;;10826879;27;20097;-71
2021/12/11 01:53:09;;;;;;;13.00;6.12;;;6.70;83.90;;;;;;10825095;33;20384;-73
2021/12/11 01:59:19;;;;;;;7.90;4.60;;;6.60;83.90;;;;;;10824793;33;20070;-73
2021/12/11 02:05:25;;;;;;;9.65;5.50;;;6.60;84.10;;;;;;10824674;33;20024;-73
2021/12/11 02:11:30;;;;;;;7.30;4.55;;;6.70;84.00;;;;;;10822360;33;20020;-73
2021/12/11 02:17:41;;;;;;;10.52;5.43;;;6.70;84.00;;;;;;10824569;33;20430;-73
2021/12/11 02:23:51;;;;;;;6.65;3.75;;;6.60;84.00;;;;;;10811239;33;20024;-73
2021/12/11 02:29:59;;;;;;;6.40;4.12;;;6.60;84.20;;;;;;10824299;33;20117;-73
2021/12/11 02:36:11;;;;;;;7.43;3.37;;;6.60;84.30;;;;;;10824041;32;20403;-73
2021/12/11 02:42:39;;;;;;;6.20;4.22;;;6.60;84.30;;;;;;10829682;32;20024;-73
2021/12/11 02:48:54;;;;;;;8.63;4.40;;;6.60;84.20;;;;;;10807643;33;20020;-73
2021/12/11 02:55:23;;;;;;;6.25;3.40;;;6.60;84.20;;;;;;10816983;33;20024;-73
2021/12/11 03:01:34;;;;;;;5.90;3.23;;;6.50;84.20;;;;;;10825760;33;20062;-73
2021/12/11 03:07:37;;;;;;;6.55;3.50;;;6.40;84.40;;;;;;10829757;33;20016;-71
2021/12/11 03:13:40;;;;;;;7.80;4.40;;;6.30;84.40;;;;;;10829485;33;20043;-71
2021/12/11 03:19:45;;;;;;;7.43;4.03;;;6.20;84.50;;;;;;10829455;33;20066;-71
2021/12/11 03:25:48;;;;;;;7.12;4.40;;;6.20;84.60;;;;;;10813424;33;20051;-71
2021/12/11 03:31:50;;;;;;;5.60;3.22;;;6.30;84.50;;;;;;10829076;33;20086;-71
2021/12/11 03:37:52;;;;;;;6.32;3.78;;;6.40;84.30;;;;;;10828835;33;20047;-71
2021/12/11 03:43:55;;;;;;;6.45;3.58;;;6.10;84.10;;;;;;10828736;33;20414;-71
2021/12/11 03:49:58;;;;;;;5.37;3.05;;;5.80;84.60;;;;;;10824256;32;20025;-71
2021/12/11 03:56:08;;;;;;;4.68;2.70;;;5.70;84.80;;;;;;10828456;32;20156;-71
2021/12/11 04:02:12;;;;;;;6.03;3.70;;;5.70;84.90;;;;;;10828104;33;20059;-71
2021/12/11 04:08:19;;;;;;;4.90;2.47;;;5.60;84.90;;;;;;10827925;33;20020;-71
2021/12/11 04:14:26;;;;;;;5.53;3.15;;;5.50;84.90;;;;;;10827879;33;20047;-71
2021/12/11 04:20:29;;;;;;;6.78;4.68;;;5.40;85.00;;;;;;10827611;32;20055;-74
2021/12/11 04:26:32;;;;;;;6.07;3.42;;;5.50;85.10;;;;;;10827455;33;20042;-74
2021/12/11 04:32:36;;;;;;;6.53;3.42;;;5.50;84.10;;;;;;10827203;33;20031;-73
2021/12/11 04:38:39;;;;;;;9.05;3.85;;;5.30;84.50;;;;;;10827094;33;20050;-74
2021/12/11 04:44:45;;;;;;;6.65;3.37;;;5.40;84.90;;;;;;10826970;32;20047;-74
2021/12/11 04:50:59;;;;;;;6.37;3.60;;;5.30;84.70;;;;;;10826691;33;20038;-74
2021/12/11 04:57:48;;;;;;;4.45;2.75;;;5.30;84.80;;;;;;10826522;32;20069;-71
2021/12/11 05:10:16;;;;;;;6.82;3.83;;;5.20;84.80;;;;;;10826174;33;20049;-71
2021/12/11 05:16:18;;;;;;;5.05;3.08;;;5.30;84.80;;;;;;10822685;32;20029;-71
2021/12/11 05:22:21;;;;;;;6.18;3.40;;;5.20;84.50;;;;;;10825859;33;20039;-71
2021/12/11 05:28:24;;;;;;;7.65;4.07;;;5.20;84.60;;;;;;10825699;33;20024;-71
2021/12/11 05:34:26;;;;;;;6.62;3.72;;;5.10;84.60;;;;;;10825685;32;20062;-71
2021/12/11 05:40:30;;;;;;;5.75;3.10;;;5.00;84.70;;;;;;10825435;33;20055;-71
2021/12/11 05:46:32;;;;;;;6.93;2.75;;;5.00;84.70;;;;;;10822815;33;20015;-71
2021/12/11 05:52:35;;;;;;;6.80;3.78;;;5.00;84.90;;;;;;10825046;33;20046;-71
2021/12/11 05:58:48;;;;;;;6.70;3.83;;;5.00;84.20;;;;;;10824730;33;20055;-71
2021/12/11 06:04:53;;;;;;;4.53;2.50;;;4.90;84.50;;;;;;10824949;33;20055;-73
2021/12/11 06:10:55;;;;;;;3.80;2.60;;;5.00;84.60;;;;;;10824721;32;20372;-73
2021/12/11 06:16:59;;;;;;;4.62;2.70;;;4.90;84.70;;;;;;10835752;32;20032;-73
2021/12/11 06:23:02;;;;;;;3.55;2.00;;;5.00;84.90;;;;;;10836633;32;20020;-73
2021/12/11 06:29:04;;;;;;;8.93;4.15;;;5.10;84.80;;;;;;10836476;33;20050;-73
2021/12/11 06:35:24;;;;;;;7.85;4.47;;;5.10;85.00;;;;;;10836056;33;20046;-73
2021/12/11 06:41:32;;;;;;;7.57;4.55;;;5.20;84.80;;;;;;10832067;33;20054;-73
2021/12/11 06:47:34;;;;;;;9.93;4.75;;;5.20;84.90;;;;;;10836225;32;20368;-73
2021/12/11 06:53:39;;;;;;;8.35;5.62;;;5.30;85.00;;;;;;10835991;32;20020;-73
2021/12/11 06:59:41;;;;;;;6.87;4.72;;;5.50;85.10;;;;;;10831777;32;20359;-71
2021/12/11 07:05:43;;;;;;;9.13;4.30;;;5.60;84.80;;;;;;10822725;32;20392;-71
2021/12/11 07:11:47;;;;;;;7.22;4.40;;;5.60;84.60;;;;;;10835726;33;20039;-71
2021/12/11 07:17:50;;;;;;;6.03;3.58;;;5.50;84.80;;;;;;10824743;33;20352;-71
2021/12/11 07:23:52;;;;;;;10.55;5.62;;;5.50;84.80;;;;;;10796855;33;20055;-71
2021/12/11 07:29:55;;;;;;;5.82;3.20;;;5.40;85.00;;;;;;10792269;33;20043;-71
2021/12/11 07:35:57;;;;;;;5.90;3.85;;;5.50;85.20;;;;;;10788518;33;20419;-71
2021/12/11 07:41:59;;;;;;;7.57;4.25;;;5.50;85.10;;;;;;10789742;33;20357;-73
2021/12/11 07:48:08;;;;;;;8.38;3.62;;;5.50;85.10;;;;;;10791652;33;20028;-73
2021/12/11 07:54:11;;;;;;;8.73;4.80;;;5.40;84.90;;;;;;10791649;33;20047;-72
2021/12/11 08:00:18;;;;;;;9.85;5.15;;;5.20;85.10;;;;;;10788598;33;20037;-72
2021/12/11 08:06:41;;;;;;;8.10;5.00;;;5.30;85.20;;;;;;10791174;33;20029;-73
2021/12/11 08:12:44;;;;;;;10.27;6.62;;;5.40;85.10;;;;;;10790861;33;20113;-72
2021/12/11 08:18:47;;;;;;;14.27;10.40;;;5.30;85.10;;;;;;10790790;33;20439;-73
2021/12/11 08:24:50;;;;;;;19.65;11.57;;;5.40;85.00;;;;;;10790718;33;20051;-73
2021/12/11 08:30:53;;;;;;;16.50;10.30;;;5.50;85.10;;;;;;10790704;33;20332;-73
2021/12/11 08:36:56;;;;;;;14.90;11.25;;;5.60;85.20;;;;;;10787007;33;20420;-73
2021/12/11 08:43:00;;;;;;;16.80;9.65;;;5.70;84.90;;;;;;10795940;32;20024;-74
2021/12/11 08:49:07;;;;;;;10.73;8.02;;;5.70;85.00;;;;;;10826953;33;20359;-73
2021/12/11 08:55:21;;;;;;;11.80;7.50;;;5.80;84.90;;;;;;10826631;33;20027;-73
2021/12/11 09:01:31;;;;;;;10.32;6.78;;;5.80;85.10;;;;;;10826484;33;20069;-73
2021/12/11 09:07:36;;;;;;;10.80;6.75;;;5.80;85.20;;;;;;10824437;33;20047;-73
2021/12/11 09:14:08;;;;;;;10.30;7.65;;;6.10;85.00;;;;;;10825421;33;20031;-74
2021/12/11 09:20:36;;;;;;;13.25;7.05;;;6.20;85.00;;;;;;10815679;32;20051;-73
2021/12/11 09:26:51;;;;;;;10.27;7.03;;;6.20;84.60;;;;;;10826817;32;20031;-73
2021/12/11 09:33:00;;;;;;;10.90;8.32;;;6.20;84.70;;;;;;10826730;32;20028;-73
2021/12/11 09:39:19;;;;;;;11.15;6.22;;;6.30;84.80;;;;;;10826295;32;20036;-73
2021/12/11 09:45:24;;;;;;;16.75;10.95;;;6.50;84.80;;;;;;10875953;27;20031;-73
2021/12/11 09:51:34;;;;;;;10.80;7.45;;;6.50;84.80;;;;;;10900079;32;20404;-73
2021/12/11 09:57:42;;;;;;;13.10;7.62;;;6.60;84.90;;;;;;10778954;32;20054;-73
2021/12/11 10:03:55;;;;;;;6.77;4.70;;;6.70;84.70;;;;;;10788067;32;20024;-71
2021/12/11 10:10:07;;;;;;;7.70;4.35;;;6.80;84.80;;;;;;10788009;33;20345;-71
2021/12/11 10:16:10;;;;;;;12.27;8.35;;;6.90;84.70;;;;;;10785841;33;20417;-73
2021/12/11 10:22:22;;;;;;;9.93;6.97;;;7.10;84.60;;;;;;10787700;33;20329;-73
2021/12/11 10:28:28;;;;;;;10.70;6.37;;;7.30;83.60;;;;;;10787463;33;20040;-73
2021/12/11 10:34:32;;;;;;;12.00;8.02;;;7.30;82.40;;;;;;10787360;33;20020;-73
2021/12/11 10:40:41;;;;;;;11.05;8.15;;;7.50;82.80;;;;;;10787307;32;20036;-72
2021/12/11 10:46:47;;;;;;;11.50;7.75;;;7.60;82.70;;;;;;10787024;33;20028;-73
2021/12/11 10:52:50;;;;;;;11.07;6.60;;;7.70;82.60;;;;;;10782974;33;20396;-74
2021/12/11 10:58:59;;;;;;;9.15;5.32;;;7.80;82.30;;;;;;10788137;33;20054;-73
2021/12/11 11:05:06;;;;;;;7.20;3.78;;;8.00;81.70;;;;;;10793069;33;20055;-73
2021/12/11 11:11:12;;;;;;;6.12;3.17;;;8.10;81.00;;;;;;10766927;32;20040;-73
2021/12/11 11:17:17;;;;;;;6.37;4.03;;;8.20;81.10;;;;;;10788379;33;20055;-73
2021/12/11 11:23:20;;;;;;;3.40;2.28;;;8.50;80.60;;;;;;10792338;33;20020;-73
2021/12/11 11:29:25;;;;;;;6.22;3.12;;;8.60;80.10;;;;;;10792465;33;20037;-73
2021/12/11 11:35:30;;;;;;;6.45;2.75;;;8.70;79.80;;;;;;10791016;33;20020;-73
2021/12/11 11:41:40;;;;;;;6.15;3.60;;;8.70;79.00;;;;;;10792010;33;20404;-73
2021/12/11 11:47:43;;;;;;;6.47;3.17;;;8.80;78.30;;;;;;10791997;33;20025;-73
2021/12/11 11:53:46;;;;;;;4.70;3.10;;;8.90;77.70;;;;;;10791341;33;20059;-73
2021/12/11 11:59:52;;;;;;;6.35;3.10;;;8.90;77.80;;;;;;10791563;33;20017;-72
2021/12/11 12:06:00;;;;;;;6.40;3.45;;;8.90;77.50;;;;;;10791409;33;20070;-72
2021/12/11 12:12:04;;;;;;;8.93;4.43;;;8.90;77.20;;;;;;10777543;33;20375;-72
2021/12/11 12:18:07;;;;;;;6.95;3.60;;;9.00;77.10;;;;;;10790917;33;20032;-72
2021/12/11 12:24:10;;;;;;;6.35;3.33;;;8.90;76.50;;;;;;10790571;33;20028;-72
2021/12/11 12:30:21;;;;;;;7.03;3.72;;;8.90;76.00;;;;;;10790668;33;20353;-71
2021/12/11 12:36:25;;;;;;;7.18;3.92;;;8.70;76.00;;;;;;10787914;33;20027;-71
2021/12/11 12:42:40;;;;;;;4.97;3.28;;;8.80;76.10;;;;;;10789929;33;20063;-71
2021/12/11 12:48:42;;;;;;;6.57;3.10;;;8.70;75.90;;;;;;10790267;33;20056;-71
2021/12/11 12:54:45;;;;;;;7.05;4.28;;;8.70;76.50;;;;;;10789992;33;20304;-71
2021/12/11 13:00:56;;;;;;;6.05;3.15;;;8.90;76.50;;;;;;10789780;33;20024;-71
2021/12/11 13:07:04;;;;;;;2.67;1.40;;;9.00;75.80;;;;;;10789631;33;20051;-71
2021/12/11 13:13:08;;;;;;;4.50;2.67;;;9.10;75.40;;;;;;10789613;33;20017;-71
2021/12/11 13:19:19;;;;;;;4.00;2.10;;;9.20;75.70;;;;;;10789134;33;20036;-71
2021/12/11 13:25:27;;;;;;;5.40;2.75;;;9.30;75.70;;;;;;10787888;33;20031;-71
2021/12/11 13:31:38;;;;;;;5.97;3.62;;;9.50;75.30;;;;;;10788716;32;20032;-71
2021/12/11 13:37:40;;;;;;;6.22;3.17;;;9.70;74.80;;;;;;10788714;33;20405;-71
2021/12/11 13:43:43;;;;;;;4.30;2.90;;;9.80;74.30;;;;;;10784396;33;20055;-71
2021/12/11 13:49:45;;;;;;;3.53;2.22;;;9.90;73.90;;;;;;10788509;32;20047;-71
2021/12/11 13:55:49;;;;;;;3.70;2.42;;;9.90;73.50;;;;;;10788300;32;20024;-71
2021/12/11 14:01:52;;;;;;;5.68;2.80;;;10.00;73.50;;;;;;10787948;33;20028;-71
2021/12/11 14:07:54;;;;;;;4.25;1.62;;;9.90;73.20;;;;;;10787768;33;20036;-71
2021/12/11 14:13:57;;;;;;;4.07;2.37;;;10.30;72.70;;;;;;10787734;33;20201;-71
2021/12/11 14:19:59;;;;;;;4.85;3.05;;;10.70;72.20;;;;;;10787494;33;20028;-71
2021/12/11 14:26:04;;;;;;;5.37;2.35;;;11.20;72.00;;;;;;10784671;33;20324;-71
2021/12/11 14:32:07;;;;;;;5.70;2.80;;;11.70;70.90;;;;;;10787344;33;20062;-71
2021/12/11 14:38:11;;;;;;;4.95;2.45;;;11.70;71.00;;;;;;10793225;33;20055;-71
2021/12/11 14:44:23;;;;;;;4.85;2.30;;;11.30;72.10;;;;;;10779363;33;20033;-71
2021/12/11 14:50:32;;;;;;;7.93;2.62;;;10.70;73.60;;;;;;10772925;33;20029;-71
2021/12/11 14:56:36;;;;;;;;;;;10.30;74.30;;;;;;10756845;33;20032;-71
2021/12/11 15:02:40;;;;;;;2.53;1.30;;;9.90;75.10;;;;;;10755103;33;19954;-71
2021/12/11 15:08:44;;;;;;;3.50;1.75;;;9.50;75.80;;;;;;10756329;32;20029;-71
2021/12/11 15:14:46;;;;;;;3.47;1.23;;;9.20;76.40;;;;;;10789579;33;20060;-71
2021/12/11 15:20:55;;;;;;;3.30;1.65;;;8.90;77.10;;;;;;10792657;33;20051;-71
2021/12/11 15:26:57;;;;;;;1.37;1.05;;;8.60;77.60;;;;;;10792834;32;20051;-72
2021/12/11 15:33:01;;;;;;;3.50;2.05;;;8.40;78.00;;;;;;10789216;33;20055;-72
2021/12/11 15:39:26;;;;;;;9.52;2.28;;;8.30;78.40;;;;;;10791811;33;20047;-72
2021/12/11 15:45:30;;;;;;;3.50;1.70;;;8.20;78.70;;;;;;10790914;33;20061;-73
2021/12/11 15:51:34;;;;;;;3.55;2.22;;;8.00;79.00;;;;;;10791749;33;20435;-71
2021/12/11 15:57:36;;;;;;;4.50;1.85;;;7.80;79.30;;;;;;10786953;33;20020;-71
2021/12/11 16:03:39;;;;;;;4.62;2.60;;;7.70;79.60;;;;;;10761356;32;20102;-71
2021/12/11 16:09:43;;;;;;;3.62;2.17;;;7.60;79.80;;;;;;10751439;33;20020;-71
2021/12/11 16:15:48;;;;;;;4.07;2.37;;;7.50;80.00;;;;;;10762441;32;20032;-71
2021/12/11 16:21:51;;;;;;;6.80;3.62;;;7.50;80.10;;;;;;10784290;33;20036;-70
2021/12/11 16:28:00;;;;;;;4.95;2.90;;;7.40;80.30;;;;;;10751907;32;20051;-70
2021/12/11 16:34:06;;;;;;;6.37;3.22;;;7.30;80.40;;;;;;10752996;33;20071;-70
2021/12/11 16:40:14;;;;;;;7.80;4.68;;;7.20;80.50;;;;;;10753869;33;20055;-71
2021/12/11 16:46:20;;;;;;;6.90;4.35;;;7.10;80.80;;;;;;10357164;33;12199853;-71
2021/12/11 16:52:23;;;;;;;5.85;3.85;;;7.10;80.80;;;;;;10713515;33;20083;-71
2021/12/11 16:58:31;;;;;;;7.18;4.18;;;7.10;80.90;;;;;;10708973;33;20032;-71
2021/12/11 17:04:34;;;;;;;13.35;10.00;;;7.00;81.00;;;;;;10712921;33;20036;-71
2021/12/11 17:10:44;;;;;;;9.07;6.43;;;6.90;81.10;;;;;;10730368;33;20032;-71
2021/12/11 17:16:47;;;;;;;15.07;6.85;;;6.80;81.10;;;;;;10752881;32;20336;-71
2021/12/11 17:22:50;;;;;;;11.27;7.60;;;6.70;81.20;;;;;;10789147;33;20029;-71
2021/12/11 17:29:16;;;;;;;18.75;9.35;;;6.70;81.30;;;;;;10789026;32;20082;-71
2021/12/11 17:35:19;;;;;;;14.13;8.80;;;6.60;81.40;;;;;;10771997;33;20329;-73
2021/12/11 17:41:23;;;;;;;19.25;14.07;;;6.50;81.50;;;;;;10788224;33;20067;-73
2021/12/11 17:47:26;;;;;;;13.23;8.88;;;6.50;81.50;;;;;;10862135;26;20036;-72
2021/12/11 17:53:28;;;;;;;20.55;11.65;;;6.50;81.50;;;;;;10857850;32;20023;-73
2021/12/11 17:59:31;;;;;;;15.55;10.93;;;6.40;81.60;;;;;;10861889;32;20023;-72
2021/12/11 18:05:38;;;;;;;19.45;11.27;;;6.30;81.60;;;;;;10861552;32;20066;-73
2021/12/11 18:12:00;;;;;;;25.12;15.57;;;6.20;81.80;;;;;;10861114;32;20046;-73
2021/12/11 18:18:12;;;;;;;21.90;15.45;;;6.20;81.80;;;;;;10861449;32;20032;-73
2021/12/11 18:24:17;;;;;;;22.15;15.20;;;6.20;81.90;;;;;;10861602;32;20016;-72
2021/12/11 18:30:29;;;;;;;22.20;15.80;;;6.20;81.80;;;;;;10860925;32;20434;-73
2021/12/11 18:36:41;;;;;;;23.58;17.58;;;6.20;81.80;;;;;;10861170;32;20388;-72
2021/12/11 18:42:44;;;;;;;25.50;19.10;;;6.10;81.80;;;;;;10847689;32;20383;-72
2021/12/11 18:48:47;;;;;;;24.92;18.70;;;6.10;81.80;;;;;;10861055;32;20046;-71
2021/12/11 18:54:51;;;;;;;25.58;18.33;;;5.90;82.10;;;;;;10858877;32;20024;-71
2021/12/11 19:01:34;;;;;;;28.58;21.02;;;5.90;82.10;;;;;;10860417;32;20461;-71
2021/12/11 19:07:57;;;;;;;32.00;24.73;;;5.70;82.20;;;;;;10900100;32;20039;-70
2021/12/11 19:14:00;;;;;;;30.55;20.52;;;5.70;82.50;;;;;;10899246;32;20015;-70
2021/12/11 19:20:06;;;;;;;29.65;21.60;;;5.70;82.70;;;;;;10896833;32;20054;-73
2021/12/11 19:26:08;;;;;;;30.12;22.20;;;5.60;82.60;;;;;;10906944;32;20408;-72
2021/12/11 19:32:11;;;;;;;36.72;29.67;;;5.60;82.60;;;;;;10905086;32;20015;-73
2021/12/11 19:38:14;;;;;;;29.23;20.77;;;5.60;82.60;;;;;;10906272;32;20058;-72
2021/12/11 19:44:17;;;;;;;33.05;25.27;;;5.60;82.60;;;;;;10876831;32;20046;-72
2021/12/11 19:50:22;;;;;;;27.05;21.33;;;5.50;82.60;;;;;;10865651;32;20047;-72
2021/12/11 19:56:25;;;;;;;25.23;19.65;;;5.40;82.40;;;;;;10865582;32;20032;-73
2021/12/11 20:02:32;;;;;;;27.35;21.17;;;5.40;82.40;;;;;;10865481;32;20332;-73
2021/12/11 20:08:49;;;;;;;27.10;20.83;;;5.40;82.30;;;;;;10865413;32;20447;-72
2021/12/11 20:14:57;;;;;;;32.33;23.15;;;5.30;82.30;;;;;;10851866;32;20020;-71
2021/12/11 20:21:06;;;;;;;35.33;25.45;;;5.30;82.20;;;;;;10864759;32;20031;-70
2021/12/11 20:27:10;;;;;;;39.63;23.55;;;5.20;82.30;;;;;;10864839;32;20000;-70
2021/12/11 20:33:13;;;;;;;34.17;24.37;;;5.20;82.30;;;;;;10849778;32;20062;-70
2021/12/11 20:39:17;;;;;;;32.60;24.92;;;5.10;82.30;;;;;;10864141;32;20032;-71
2021/12/11 20:45:22;;;;;;;37.55;29.37;;;5.10;82.30;;;;;;10864102;32;20046;-71
2021/12/11 20:51:32;;;;;;;36.47;26.80;;;5.20;82.20;;;;;;10863899;32;20051;-71
2021/12/11 20:57:34;;;;;;;;;;;5.00;82.20;;;;;;10863675;32;20078;-70
2021/12/11 21:03:39;;;;;;;33.95;27.20;;;4.90;82.30;;;;;;10863498;32;19926;-72
2021/12/11 21:10:12;;;;;;;33.13;26.73;;;4.90;82.60;;;;;;10863162;32;20020;-72
2021/12/11 21:17:08;;;;;;;35.40;28.12;;;4.90;82.70;;;;;;10863632;32;20012;-72
2021/12/11 21:23:16;;;;;;;41.08;34.28;;;4.90;82.60;;;;;;10863785;32;20046;-73
2021/12/11 21:29:37;;;;;;;32.92;26.35;;;4.90;83.20;;;;;;10862159;32;20011;-72
2021/12/11 21:35:40;;;;;;;36.15;28.08;;;4.80;83.10;;;;;;10862422;32;20051;-73
2021/12/11 21:41:51;;;;;;;37.15;29.35;;;4.70;82.90;;;;;;10862427;32;20031;-73
2021/12/11 21:48:07;;;;;;;53.50;41.37;;;4.60;83.10;;;;;;10849122;32;20020;-73
2021/12/11 21:54:15;;;;;;;61.35;45.70;;;4.60;82.90;;;;;;10860594;32;20031;-73
2021/12/11 22:00:28;;;;;;;42.85;32.78;;;4.70;82.90;;;;;;10859132;32;20046;-73
2021/12/11 22:06:38;;;;;;;38.67;31.70;;;4.70;83.10;;;;;;10848837;32;20062;-73
2021/12/11 22:12:42;;;;;;;56.25;43.05;;;4.60;83.10;;;;;;10861695;32;20028;-73
2021/12/11 22:18:45;;;;;;;44.97;34.63;;;4.50;83.10;;;;;;10848278;32;20055;-73
2021/12/11 22:24:47;;;;;;;37.75;33.67;;;4.60;83.10;;;;;;10861547;32;20016;-72
2021/12/11 22:30:54;;;;;;;42.90;34.65;;;4.50;83.00;;;;;;10848082;32;20392;-72
2021/12/11 22:37:00;;;;;;;39.97;32.42;;;4.50;83.20;;;;;;10861148;32;20096;-74
2021/12/11 22:43:05;;;;;;;41.25;33.33;;;4.40;83.30;;;;;;10860892;32;20028;-74
2021/12/11 22:49:16;;;;;;;49.65;39.38;;;4.40;83.10;;;;;;10847861;32;20046;-73
2021/12/11 22:55:30;;;;;;;42.92;35.22;;;4.30;83.10;;;;;;10847350;32;20403;-71
2021/12/11 23:02:03;;;;;;;36.78;28.52;;;4.40;83.10;;;;;;10867790;32;20020;-71
2021/12/11 23:08:07;;;;;;;37.95;27.45;;;4.30;82.90;;;;;;10864545;32;20027;-71
2021/12/11 23:14:17;;;;;;;35.92;25.62;;;4.20;82.80;;;;;;10866985;32;20030;-71
2021/12/11 23:20:39;;;;;;;28.12;21.62;;;4.10;83.00;;;;;;10862670;32;20050;-71
2021/12/11 23:26:47;;;;;;;27.55;20.50;;;4.10;83.10;;;;;;10866480;32;20024;-71
2021/12/11 23:32:52;;;;;;;32.60;23.77;;;3.90;83.20;;;;;;10853050;32;20015;-71
2021/12/11 23:39:08;;;;;;;39.55;30.27;;;3.90;83.20;;;;;;10861854;32;20020;-71
2021/12/11 23:45:35;;;;;;;37.28;28.40;;;3.90;83.00;;;;;;10865884;32;20023;-71
2021/12/11 23:51:40;;;;;;;32.88;24.23;;;3.90;82.90;;;;;;10861526;32;20024;-71
2021/12/11 23:57:48;;;;;;;32.85;25.98;;;3.90;83.00;;;;;;10865531;32;20031;-71
